createdAt,value
2018-01-30T04:00:32.869Z,1023.54
2018-01-30T04:01:32.901Z,1023.59
2018-01-30T04:04:17.289Z,1023.56
2018-01-30T04:05:17.190Z,1023.58
2018-01-30T04:08:01.703Z,1023.54
2018-01-30T04:09:01.550Z,1023.53
2018-01-30T04:11:44.952Z,1023.58
2018-01-30T04:12:44.918Z,1023.61
2018-01-30T04:15:29.338Z,1023.62
2018-01-30T04:16:29.485Z,1023.66
2018-01-30T04:19:13.656Z,1023.70
2018-01-30T04:20:13.244Z,1023.67
2018-01-30T04:22:57.634Z,1023.76
2018-01-30T04:23:57.572Z,1023.73
2018-01-30T04:26:40.980Z,1023.86
2018-01-30T04:27:40.944Z,1023.89
2018-01-30T04:30:24.913Z,1023.93
2018-01-30T04:31:24.319Z,1023.87
2018-01-30T04:34:09.614Z,1023.86
2018-01-30T04:35:09.089Z,1023.82
2018-01-30T04:37:52.547Z,1023.79
2018-01-30T04:38:52.100Z,1023.76
2018-01-30T04:41:36.459Z,1023.81
2018-01-30T04:42:36.947Z,1023.78
2018-01-30T04:45:20.137Z,1023.80
2018-01-30T04:46:20.114Z,1023.83
2018-01-30T04:49:04.083Z,1023.83
2018-01-30T04:50:03.507Z,1023.81
2018-01-30T04:52:49.032Z,1023.74
2018-01-30T04:53:48.980Z,1023.75
2018-01-30T04:56:33.711Z,1023.79
2018-01-30T04:57:33.744Z,1023.76
2018-01-30T05:00:18.063Z,1023.80
2018-01-30T05:01:17.653Z,1023.79
2018-01-30T05:04:02.505Z,1023.81
2018-01-30T05:05:02.056Z,1023.84
2018-01-30T05:07:46.784Z,1023.88
2018-01-30T05:08:46.794Z,1023.89
2018-01-30T05:11:31.135Z,1023.81
2018-01-30T05:12:31.709Z,1023.82
2018-01-30T05:15:15.132Z,1023.76
2018-01-30T05:16:15.112Z,1023.74
2018-01-30T05:18:58.514Z,1023.75
2018-01-30T05:19:58.566Z,1023.77
2018-01-30T05:22:42.238Z,1023.79
2018-01-30T05:23:42.261Z,1023.76
2018-01-30T05:26:26.848Z,1023.67
2018-01-30T05:27:26.124Z,1023.72
2018-01-30T05:30:09.546Z,1023.72
2018-01-30T05:31:09.825Z,1023.63
2018-01-30T05:33:53.918Z,1023.64
2018-01-30T05:34:53.835Z,1023.70
2018-01-30T05:37:38.530Z,1023.61
2018-01-30T05:38:38.502Z,1023.66
2018-01-30T05:41:22.532Z,1023.70
2018-01-30T05:42:22.410Z,1023.66
2018-01-30T05:45:07.072Z,1023.61
2018-01-30T05:46:06.794Z,1023.57
2018-01-30T05:48:51.197Z,1023.64
2018-01-30T05:49:51.193Z,1023.65
2018-01-30T05:52:34.599Z,1023.69
2018-01-30T05:53:34.574Z,1023.73
2018-01-30T05:56:17.947Z,1023.86
2018-01-30T05:57:17.919Z,1023.90
2018-01-30T06:00:02.611Z,1023.91
2018-01-30T06:01:02.268Z,1023.88
2018-01-30T06:03:47.223Z,1024.06
2018-01-30T06:04:47.410Z,1024.07
2018-01-30T06:07:30.889Z,1024.06
2018-01-30T06:08:30.829Z,1024.10
2018-01-30T06:11:15.237Z,1024.18
2018-01-30T06:12:15.188Z,1024.20
2018-01-30T06:14:59.586Z,1024.14
2018-01-30T06:15:59.581Z,1024.18
2018-01-30T06:18:43.600Z,1024.18
2018-01-30T06:19:43.853Z,1024.19
2018-01-30T06:22:27.374Z,1024.24
2018-01-30T06:23:27.212Z,1024.20
2018-01-30T06:26:11.318Z,1024.19
2018-01-30T06:27:11.293Z,1024.19
2018-01-30T06:29:55.958Z,1024.22
2018-01-30T06:30:55.611Z,1024.19
2018-01-30T06:33:40.041Z,1024.19
2018-01-30T06:34:39.977Z,1024.23
2018-01-30T06:37:24.728Z,1024.17
2018-01-30T06:38:24.620Z,1024.21
2018-01-30T06:41:09.081Z,1024.19
2018-01-30T06:42:09.108Z,1024.15
2018-01-30T06:44:53.099Z,1024.09
2018-01-30T06:45:53.337Z,1024.08
2018-01-30T06:48:44.346Z,1023.92
2018-01-30T06:49:36.399Z,1023.83
2018-01-30T06:52:20.077Z,1023.80
2018-01-30T06:53:20.027Z,1023.79
2018-01-30T06:56:03.171Z,1023.83
2018-01-30T06:57:03.115Z,1023.76
2018-01-30T06:59:46.485Z,1023.87
2018-01-30T07:00:46.759Z,1023.87
2018-01-30T07:03:30.946Z,1023.86
2018-01-30T07:04:31.377Z,1023.87
2018-01-30T07:07:15.195Z,1023.87
2018-01-30T07:08:15.447Z,1023.85
2018-01-30T07:10:58.921Z,1023.97
2018-01-30T07:11:58.521Z,1023.98
2018-01-30T07:14:43.239Z,1024.06
2018-01-30T07:15:43.147Z,1024.08
2018-01-30T07:18:27.554Z,1024.08
2018-01-30T07:19:27.485Z,1024.10
2018-01-30T07:22:11.892Z,1024.14
2018-01-30T07:23:12.158Z,1024.15
2018-01-30T07:25:55.951Z,1024.22
2018-01-30T07:26:55.929Z,1024.22
2018-01-30T07:29:40.670Z,1024.22
2018-01-30T07:30:40.571Z,1024.22
2018-01-30T07:33:24.975Z,1024.24
2018-01-30T07:34:24.602Z,1024.29
2018-01-30T07:37:08.525Z,1024.39
2018-01-30T07:38:07.951Z,1024.36
2018-01-30T07:40:51.673Z,1024.41
2018-01-30T07:41:51.610Z,1024.35
2018-01-30T07:44:35.039Z,1024.45
2018-01-30T07:45:34.962Z,1024.50
2018-01-30T07:48:18.392Z,1024.53
2018-01-30T07:49:18.017Z,1024.46
2018-01-30T07:52:02.732Z,1024.46
2018-01-30T07:53:02.697Z,1024.49
2018-01-30T07:55:47.081Z,1024.52
2018-01-30T07:56:47.094Z,1024.44
2018-01-30T07:59:30.103Z,1024.40
2018-01-30T08:00:30.420Z,1024.43
2018-01-30T08:03:13.799Z,1024.46
2018-01-30T08:04:13.810Z,1024.44
2018-01-30T08:06:57.153Z,1024.47
2018-01-30T08:07:56.788Z,1024.41
2018-01-30T08:10:40.481Z,1024.49
2018-01-30T08:11:40.144Z,1024.46
2018-01-30T08:14:25.846Z,1024.47
2018-01-30T08:15:25.874Z,1024.49
2018-01-30T08:18:10.284Z,1024.50
2018-01-30T08:19:10.176Z,1024.45
2018-01-30T08:21:53.564Z,1024.49
2018-01-30T08:22:53.497Z,1024.47
2018-01-30T08:25:36.575Z,1024.52
2018-01-30T08:26:36.834Z,1024.53
2018-01-30T08:27:36.829Z,1024.55
2018-01-30T08:28:36.515Z,1024.52
2018-01-30T08:29:36.508Z,1024.57
2018-01-30T08:30:36.512Z,1024.62
2018-01-30T08:31:36.496Z,1024.71
2018-01-30T08:32:37.115Z,1024.67
2018-01-30T08:33:36.474Z,1024.68
2018-01-30T08:34:36.460Z,1024.61
2018-01-30T08:35:36.457Z,1024.58
2018-01-30T08:36:36.447Z,1024.57
2018-01-30T08:37:36.433Z,1024.54
2018-01-30T08:38:36.428Z,1024.57
2018-01-30T08:39:36.427Z,1024.52
2018-01-30T08:40:36.415Z,1024.52
2018-01-30T08:41:36.405Z,1024.51
2018-01-30T08:42:37.126Z,1024.46
2018-01-30T08:43:36.402Z,1024.49
2018-01-30T08:44:37.123Z,1024.46
2018-01-30T08:45:36.367Z,1024.47
2018-01-30T08:46:36.368Z,1024.50
2018-01-30T08:47:36.361Z,1024.50
2018-01-30T08:48:36.356Z,1024.45
2018-01-30T08:49:36.357Z,1024.45
2018-01-30T08:50:36.625Z,1024.46
2018-01-30T08:51:36.669Z,1024.47
2018-01-30T08:52:36.681Z,1024.47
2018-01-30T08:53:36.593Z,1024.45
2018-01-30T08:54:36.637Z,1024.42
2018-01-30T08:55:36.616Z,1024.49
2018-01-30T08:56:36.600Z,1024.48
2018-01-30T08:57:36.587Z,1024.45
2018-01-30T08:58:36.590Z,1024.46
2018-01-30T08:59:36.257Z,1024.44
2018-01-30T09:00:37.124Z,1024.51
2018-01-30T09:01:36.233Z,1024.44
2018-01-30T09:02:36.231Z,1024.41
2018-01-30T09:03:36.214Z,1024.36
2018-01-30T09:04:36.218Z,1024.33
2018-01-30T09:05:36.198Z,1024.33
2018-01-30T09:06:36.195Z,1024.35
2018-01-30T09:07:36.186Z,1024.36
2018-01-30T09:08:36.191Z,1024.36
2018-01-30T09:09:36.170Z,1024.44
2018-01-30T09:10:36.161Z,1024.48
2018-01-30T09:11:36.152Z,1024.41
2018-01-30T09:12:36.147Z,1024.43
2018-01-30T09:13:36.138Z,1024.37
2018-01-30T09:14:36.141Z,1024.36
2018-01-30T09:15:36.132Z,1024.30
2018-01-30T09:16:36.116Z,1024.41
2018-01-30T09:17:36.099Z,1024.42
2018-01-30T09:18:36.095Z,1024.43
2018-01-30T09:19:36.084Z,1024.38
2018-01-30T09:20:36.117Z,1024.37
2018-01-30T09:21:36.073Z,1024.34
2018-01-30T09:22:36.066Z,1024.29
2018-01-30T09:23:36.054Z,1024.31
2018-01-30T09:24:36.050Z,1024.32
2018-01-30T09:25:36.053Z,1024.31
2018-01-30T09:26:36.033Z,1024.29
2018-01-30T09:27:36.021Z,1024.30
2018-01-30T09:28:36.018Z,1024.28
2018-01-30T09:29:36.023Z,1024.31
2018-01-30T09:30:35.999Z,1024.34
2018-01-30T09:31:36.016Z,1024.32
2018-01-30T09:32:35.984Z,1024.26
2018-01-30T09:33:35.977Z,1024.34
2018-01-30T09:34:35.966Z,1024.35
2018-01-30T09:35:35.957Z,1024.42
2018-01-30T09:36:35.941Z,1024.43
2018-01-30T09:37:35.955Z,1024.46
2018-01-30T09:38:35.929Z,1024.44
2018-01-30T09:39:35.927Z,1024.39
2018-01-30T09:40:35.920Z,1024.39
2018-01-30T09:41:35.922Z,1024.39
2018-01-30T09:42:35.904Z,1024.40
2018-01-30T09:43:35.891Z,1024.42
2018-01-30T09:44:35.896Z,1024.48
2018-01-30T09:45:36.645Z,1024.41
2018-01-30T09:46:35.878Z,1024.40
2018-01-30T09:47:35.873Z,1024.37
2018-01-30T09:48:35.856Z,1024.44
2018-01-30T09:49:35.850Z,1024.46
2018-01-30T09:50:35.830Z,1024.40
2018-01-30T09:51:35.836Z,1024.35
2018-01-30T09:52:35.827Z,1024.39
2018-01-30T09:53:35.816Z,1024.42
2018-01-30T09:54:35.809Z,1024.47
2018-01-30T09:55:36.665Z,1024.42
2018-01-30T09:56:35.796Z,1024.42
2018-01-30T09:57:35.806Z,1024.34
2018-01-30T09:58:35.785Z,1024.32
2018-01-30T09:59:35.776Z,1024.36
2018-01-30T10:00:35.763Z,1024.39
2018-01-30T10:01:36.644Z,1024.35
2018-01-30T10:02:35.751Z,1024.33
2018-01-30T10:03:35.740Z,1024.34
2018-01-30T10:04:35.763Z,1024.35
2018-01-30T10:05:35.734Z,1024.35
2018-01-30T10:06:36.656Z,1024.36
2018-01-30T10:07:35.716Z,1024.43
2018-01-30T10:08:35.700Z,1024.38
2018-01-30T10:09:35.705Z,1024.39
2018-01-30T10:10:35.701Z,1024.43
2018-01-30T10:11:35.688Z,1024.39
2018-01-30T10:12:35.683Z,1024.36
2018-01-30T10:13:35.670Z,1024.38
2018-01-30T10:14:35.655Z,1024.36
2018-01-30T10:15:35.650Z,1024.32
2018-01-30T10:16:35.644Z,1024.36
2018-01-30T10:17:35.635Z,1024.31
2018-01-30T10:18:35.633Z,1024.35
2018-01-30T10:19:35.621Z,1024.38
2018-01-30T10:20:35.615Z,1024.41
2018-01-30T10:21:35.617Z,1024.40
2018-01-30T10:22:35.607Z,1024.41
2018-01-30T10:23:35.593Z,1024.43
2018-01-30T10:24:35.602Z,1024.42
2018-01-30T10:25:35.593Z,1024.39
2018-01-30T10:26:35.572Z,1024.34
2018-01-30T10:27:35.567Z,1024.40
2018-01-30T10:28:36.151Z,1024.37
2018-01-30T10:29:36.165Z,1024.37
2018-01-30T10:30:35.541Z,1024.38
2018-01-30T10:31:35.548Z,1024.35
2018-01-30T10:32:35.526Z,1024.31
2018-01-30T10:33:35.523Z,1024.32
2018-01-30T10:34:38.159Z,1024.37
2018-01-30T10:35:35.525Z,1024.40
2018-01-30T10:36:35.496Z,1024.36
2018-01-30T10:37:36.166Z,1024.38
2018-01-30T10:38:35.488Z,1024.35
2018-01-30T10:39:35.477Z,1024.35
2018-01-30T10:40:35.490Z,1024.35
2018-01-30T10:41:36.163Z,1024.33
2018-01-30T10:42:35.468Z,1024.32
2018-01-30T10:43:35.472Z,1024.34
2018-01-30T10:44:35.439Z,1024.30
2018-01-30T10:45:35.441Z,1024.26
2018-01-30T10:46:35.424Z,1024.26
2018-01-30T10:47:35.433Z,1024.24
2018-01-30T10:48:35.422Z,1024.23
2018-01-30T10:49:35.403Z,1024.24
2018-01-30T10:50:35.407Z,1024.20
2018-01-30T10:51:36.161Z,1024.15
2018-01-30T10:52:35.396Z,1024.08
2018-01-30T10:53:35.396Z,1024.07
2018-01-30T10:54:35.377Z,1024.08
2018-01-30T10:55:35.397Z,1024.07
2018-01-30T10:56:42.172Z,1024.01
2018-01-30T10:57:35.355Z,1023.99
2018-01-30T10:58:36.176Z,1023.96
2018-01-30T10:59:35.343Z,1023.99
2018-01-30T11:00:35.345Z,1023.93
2018-01-30T11:01:35.330Z,1023.94
2018-01-30T11:02:36.177Z,1023.90
2018-01-30T11:03:35.318Z,1023.91
2018-01-30T11:04:36.170Z,1023.91
2018-01-30T11:05:44.306Z,1023.89
2018-01-30T11:08:19.981Z,1023.78
2018-01-30T11:09:20.038Z,1023.79
2018-01-30T11:12:04.070Z,1023.74
2018-01-30T11:13:04.404Z,1023.74
2018-01-30T11:15:52.491Z,1023.69
2018-01-30T11:16:50.248Z,1023.65
2018-01-30T11:19:33.616Z,1023.58
2018-01-30T11:20:33.564Z,1023.57
2018-01-30T11:23:16.956Z,1023.48
2018-01-30T11:24:16.967Z,1023.52
2018-01-30T11:27:00.315Z,1023.43
2018-01-30T11:28:00.285Z,1023.40
2018-01-30T11:30:43.718Z,1023.29
2018-01-30T11:31:43.678Z,1023.32
2018-01-30T11:34:27.774Z,1023.29
2018-01-30T11:35:27.696Z,1023.29
2018-01-30T11:38:12.683Z,1023.22
2018-01-30T11:39:12.041Z,1023.21
2018-01-30T11:41:55.437Z,1023.21
2018-01-30T11:42:55.418Z,1023.20
2018-01-30T11:45:40.151Z,1023.19
2018-01-30T11:46:40.068Z,1023.20
2018-01-30T11:49:25.730Z,1023.19
2018-01-30T11:50:25.642Z,1023.17
2018-01-30T11:53:10.400Z,1023.13
2018-01-30T11:54:10.366Z,1023.13
2018-01-30T11:56:53.785Z,1023.13
2018-01-30T11:57:53.708Z,1023.08
2018-01-30T12:00:38.146Z,1023.06
2018-01-30T12:01:38.163Z,1023.09
2018-01-30T12:04:21.120Z,1023.08
2018-01-30T12:05:21.678Z,1023.05
2018-01-30T12:08:05.968Z,1023.04
2018-01-30T12:09:05.801Z,1023.06
2018-01-30T12:11:49.248Z,1023.04
2018-01-30T12:12:49.156Z,1023.00
2018-01-30T12:15:32.651Z,1022.95
2018-01-30T12:16:32.231Z,1022.99
2018-01-30T12:19:17.193Z,1022.98
2018-01-30T12:20:16.588Z,1022.97
2018-01-30T12:23:00.679Z,1022.93
2018-01-30T12:24:00.272Z,1022.89
2018-01-30T12:26:44.650Z,1022.91
2018-01-30T12:27:44.607Z,1022.94
2018-01-30T12:30:29.071Z,1022.88
2018-01-30T12:31:29.040Z,1022.90
2018-01-30T12:34:13.414Z,1022.87
2018-01-30T12:35:13.290Z,1022.92
2018-01-30T12:37:56.870Z,1022.83
2018-01-30T12:38:57.043Z,1022.85
2018-01-30T12:41:41.247Z,1022.80
2018-01-30T12:42:41.363Z,1022.80
2018-01-30T12:45:24.235Z,1022.75
2018-01-30T12:46:24.730Z,1022.69
2018-01-30T12:49:08.920Z,1022.66
2018-01-30T12:50:08.890Z,1022.68
2018-01-30T12:52:52.926Z,1022.67
2018-01-30T12:53:53.234Z,1022.59
2018-01-30T12:56:37.292Z,1022.50
2018-01-30T12:57:37.536Z,1022.47
2018-01-30T12:58:37.550Z,1022.51
2018-01-30T12:59:37.597Z,1022.45
2018-01-30T13:00:37.250Z,1022.43
2018-01-30T13:01:37.247Z,1022.41
2018-01-30T13:02:37.245Z,1022.40
2018-01-30T13:03:37.536Z,1022.42
2018-01-30T13:04:37.608Z,1022.43
2018-01-30T13:05:37.199Z,1022.39
2018-01-30T13:06:37.197Z,1022.36
2018-01-30T13:07:37.189Z,1022.35
2018-01-30T13:08:37.810Z,1022.34
2018-01-30T13:09:37.174Z,1022.34
2018-01-30T13:10:37.174Z,1022.32
2018-01-30T13:11:37.174Z,1022.36
2018-01-30T13:12:37.178Z,1022.33
2018-01-30T13:13:37.166Z,1022.31
2018-01-30T13:14:37.156Z,1022.27
2018-01-30T13:14:49.155Z,1022.28
2018-01-30T13:16:37.154Z,1022.23
2018-01-30T13:17:37.853Z,1022.22
2018-01-30T13:18:37.136Z,1022.17
2018-01-30T13:19:37.152Z,1022.18
2018-01-30T13:20:37.124Z,1022.12
2018-01-30T13:21:37.124Z,1022.12
2018-01-30T13:22:37.836Z,1022.10
2018-01-30T13:23:37.108Z,1022.13
2018-01-30T13:24:37.111Z,1022.10
2018-01-30T13:25:37.103Z,1022.09
2018-01-30T13:26:37.834Z,1022.06
2018-01-30T13:27:37.094Z,1022.03
2018-01-30T13:28:37.819Z,1022.00
2018-01-30T13:29:37.077Z,1021.94
2018-01-30T13:30:37.823Z,1021.98
2018-01-30T13:31:37.822Z,1022.00
2018-01-30T13:32:37.065Z,1021.97
2018-01-30T13:33:37.064Z,1021.97
2018-01-30T13:34:37.063Z,1021.96
2018-01-30T13:35:37.058Z,1021.92
2018-01-30T13:36:37.042Z,1021.89
2018-01-30T13:37:37.039Z,1021.87
2018-01-30T13:38:37.036Z,1021.87
2018-01-30T13:39:37.029Z,1021.85
2018-01-30T13:40:37.022Z,1021.79
2018-01-30T13:41:37.045Z,1021.79
2018-01-30T13:42:37.012Z,1021.81
2018-01-30T13:43:37.006Z,1021.82
2018-01-30T13:44:37.010Z,1021.82
2018-01-30T13:45:36.994Z,1021.84
2018-01-30T13:46:36.991Z,1021.78
2018-01-30T13:47:36.989Z,1021.73
2018-01-30T13:48:36.979Z,1021.76
2018-01-30T13:49:36.973Z,1021.75
2018-01-30T13:50:36.967Z,1021.70
2018-01-30T13:51:36.972Z,1021.71
2018-01-30T13:52:36.961Z,1021.68
2018-01-30T13:53:36.955Z,1021.67
2018-01-30T13:54:36.953Z,1021.63
2018-01-30T13:55:36.944Z,1021.62
2018-01-30T13:56:36.936Z,1021.63
2018-01-30T13:57:36.932Z,1021.65
2018-01-30T13:58:36.929Z,1021.60
2018-01-30T13:59:36.927Z,1021.58
2018-01-30T14:00:36.907Z,1021.61
2018-01-30T14:01:37.836Z,1021.56
2018-01-30T14:02:36.905Z,1021.49
2018-01-30T14:02:48.905Z,1021.48
2018-01-30T14:04:37.836Z,1021.47
2018-01-30T14:05:36.882Z,1021.49
2018-01-30T14:06:36.908Z,1021.40
2018-01-30T14:07:36.892Z,1021.41
2018-01-30T14:08:36.884Z,1021.37
2018-01-30T14:09:36.867Z,1021.37
2018-01-30T14:10:36.863Z,1021.38
2018-01-30T14:11:36.859Z,1021.39
2018-01-30T14:12:36.854Z,1021.39
2018-01-30T14:13:36.859Z,1021.36
2018-01-30T14:14:36.842Z,1021.39
2018-01-30T14:15:36.830Z,1021.33
2018-01-30T14:16:36.824Z,1021.33
2018-01-30T14:17:36.826Z,1021.30
2018-01-30T14:18:36.818Z,1021.32
2018-01-30T14:19:36.810Z,1021.29
2018-01-30T14:20:36.806Z,1021.27
2018-01-30T14:21:36.800Z,1021.32
2018-01-30T14:22:36.793Z,1021.34
2018-01-30T14:23:36.787Z,1021.31
2018-01-30T14:24:36.842Z,1021.27
2018-01-30T14:25:36.788Z,1021.23
2018-01-30T14:26:36.775Z,1021.26
2018-01-30T14:27:36.770Z,1021.23
2018-01-30T14:28:36.924Z,1021.21
2018-01-30T14:29:36.761Z,1021.24
2018-01-30T14:30:37.347Z,1021.24
2018-01-30T14:31:37.360Z,1021.24
2018-01-30T14:32:36.748Z,1021.20
2018-01-30T14:33:36.743Z,1021.26
2018-01-30T14:34:36.745Z,1021.26
2018-01-30T14:35:36.858Z,1021.27
2018-01-30T14:36:36.822Z,1021.32
2018-01-30T14:37:36.717Z,1021.30
2018-01-30T14:38:36.711Z,1021.28
2018-01-30T14:39:36.705Z,1021.23
2018-01-30T14:40:36.695Z,1021.23
2018-01-30T14:41:36.687Z,1021.28
2018-01-30T14:42:36.684Z,1021.25
2018-01-30T14:43:36.679Z,1021.24
2018-01-30T14:44:36.745Z,1021.23
2018-01-30T14:45:36.677Z,1021.24
2018-01-30T14:46:36.679Z,1021.22
2018-01-30T14:47:36.659Z,1021.22
2018-01-30T14:48:36.705Z,1021.23
2018-01-30T14:48:48.656Z,1021.17
2018-01-30T14:50:36.640Z,1021.20
2018-01-30T14:51:36.655Z,1021.24
2018-01-30T14:52:36.646Z,1021.16
2018-01-30T14:53:36.649Z,1021.16
2018-01-30T14:54:36.633Z,1021.11
2018-01-30T14:55:36.624Z,1021.12
2018-01-30T14:56:36.620Z,1021.11
2018-01-30T14:57:36.607Z,1021.10
2018-01-30T14:58:36.617Z,1021.04
2018-01-30T14:59:36.589Z,1021.07
2018-01-30T15:00:36.629Z,1021.07
2018-01-30T15:01:36.606Z,1021.07
2018-01-30T15:02:36.570Z,1021.02
2018-01-30T15:03:36.618Z,1020.94
2018-01-30T15:04:36.601Z,1020.96
2018-01-30T15:05:36.571Z,1020.89
2018-01-30T15:06:36.545Z,1020.88
2018-01-30T15:07:36.547Z,1020.90
2018-01-30T15:08:36.554Z,1020.92
2018-01-30T15:09:36.537Z,1020.89
2018-01-30T15:10:36.522Z,1020.88
2018-01-30T15:11:36.524Z,1020.88
2018-01-30T15:12:36.511Z,1020.87
2018-01-30T15:13:36.510Z,1020.88
2018-01-30T15:14:37.374Z,1020.84
2018-01-30T15:15:36.514Z,1020.90
2018-01-30T15:16:36.496Z,1020.82
2018-01-30T15:17:36.505Z,1020.84
2018-01-30T15:18:37.369Z,1020.82
2018-01-30T15:19:36.469Z,1020.79
2018-01-30T15:20:36.468Z,1020.79
2018-01-30T15:21:36.471Z,1020.85
2018-01-30T15:22:36.465Z,1020.81
2018-01-30T15:23:36.452Z,1020.79
2018-01-30T15:24:36.453Z,1020.79
2018-01-30T15:25:36.432Z,1020.75
2018-01-30T15:26:37.380Z,1020.75
2018-01-30T15:27:36.423Z,1020.76
2018-01-30T15:28:36.423Z,1020.70
2018-01-30T15:29:36.403Z,1020.70
2018-01-30T15:30:36.400Z,1020.69
2018-01-30T15:31:36.396Z,1020.68
2018-01-30T15:32:36.388Z,1020.66
2018-01-30T15:33:36.393Z,1020.64
2018-01-30T15:34:36.373Z,1020.64
2018-01-30T15:35:36.378Z,1020.60
2018-01-30T15:36:36.388Z,1020.58
2018-01-30T15:37:36.351Z,1020.55
2018-01-30T15:38:36.359Z,1020.56
2018-01-30T15:39:36.338Z,1020.55
2018-01-30T15:40:36.338Z,1020.55
2018-01-30T15:41:36.349Z,1020.53
2018-01-30T15:42:36.324Z,1020.52
2018-01-30T15:43:36.321Z,1020.49
2018-01-30T15:44:36.334Z,1020.47
2018-01-30T15:45:36.321Z,1020.49
2018-01-30T15:46:36.895Z,1020.44
2018-01-30T15:47:36.312Z,1020.44
2018-01-30T15:48:36.321Z,1020.43
2018-01-30T15:49:36.291Z,1020.42
2018-01-30T15:50:36.272Z,1020.41
2018-01-30T15:51:36.883Z,1020.37
2018-01-30T15:52:36.261Z,1020.34
2018-01-30T15:53:36.246Z,1020.35
2018-01-30T15:54:36.883Z,1020.34
2018-01-30T15:55:36.237Z,1020.33
2018-01-30T15:56:36.906Z,1020.35
2018-01-30T15:57:36.221Z,1020.36
2018-01-30T15:58:36.220Z,1020.32
2018-01-30T15:59:36.215Z,1020.31
2018-01-30T16:00:36.217Z,1020.30
2018-01-30T16:01:36.925Z,1020.34
2018-01-30T16:02:36.209Z,1020.32
2018-01-30T16:03:36.180Z,1020.31
2018-01-30T16:04:36.224Z,1020.28
2018-01-30T16:05:36.167Z,1020.30
2018-01-30T16:06:36.164Z,1020.24
2018-01-30T16:07:36.162Z,1020.25
2018-01-30T16:08:36.159Z,1020.24
2018-01-30T16:09:36.144Z,1020.22
2018-01-30T16:10:36.128Z,1020.23
2018-01-30T16:11:36.128Z,1020.19
2018-01-30T16:12:36.114Z,1020.14
2018-01-30T16:13:36.110Z,1020.16
2018-01-30T16:14:36.106Z,1020.12
2018-01-30T16:15:36.098Z,1020.11
2018-01-30T16:16:36.917Z,1020.15
2018-01-30T16:17:36.096Z,1020.06
2018-01-30T16:18:36.080Z,1020.09
2018-01-30T16:19:36.075Z,1020.15
2018-01-30T16:20:36.070Z,1020.10
2018-01-30T16:21:36.083Z,1020.09
2018-01-30T16:22:36.048Z,1020.13
2018-01-30T16:23:36.050Z,1020.10
2018-01-30T16:24:36.039Z,1020.09
2018-01-30T16:25:36.023Z,1020.11
2018-01-30T16:26:36.039Z,1020.05
2018-01-30T16:27:36.005Z,1020.04
2018-01-30T16:28:36.021Z,1020.01
2018-01-30T16:29:35.999Z,1020.03
2018-01-30T16:30:35.995Z,1020.03
2018-01-30T16:31:35.983Z,1020.01
2018-01-30T16:32:36.043Z,1019.98
2018-01-30T16:33:36.003Z,1019.96
2018-01-30T16:34:35.963Z,1019.90
2018-01-30T16:35:35.965Z,1019.90
2018-01-30T16:36:35.941Z,1019.91
2018-01-30T16:37:35.942Z,1019.94
2018-01-30T16:38:35.941Z,1019.93
2018-01-30T16:39:35.959Z,1019.93
2018-01-30T16:40:35.937Z,1019.88
2018-01-30T16:41:35.928Z,1019.84
2018-01-30T16:42:35.929Z,1019.81
2018-01-30T16:43:35.910Z,1019.82
2018-01-30T16:44:35.889Z,1019.83
2018-01-30T16:45:35.883Z,1019.81
2018-01-30T16:46:35.870Z,1019.80
2018-01-30T16:47:35.866Z,1019.79
2018-01-30T16:48:35.858Z,1019.76
2018-01-30T16:49:35.853Z,1019.76
2018-01-30T16:50:35.843Z,1019.77
2018-01-30T16:51:35.836Z,1019.77
2018-01-30T16:52:35.823Z,1019.74
2018-01-30T16:53:35.815Z,1019.72
2018-01-30T16:54:35.815Z,1019.73
2018-01-30T16:55:35.811Z,1019.69
2018-01-30T16:56:35.829Z,1019.68
2018-01-30T16:57:35.785Z,1019.65
2018-01-30T16:58:35.785Z,1019.64
2018-01-30T16:59:35.789Z,1019.63
2018-01-30T17:00:35.769Z,1019.58
2018-01-30T17:01:36.005Z,1019.58
2018-01-30T17:02:36.438Z,1019.56
2018-01-30T17:03:35.753Z,1019.51
2018-01-30T17:04:35.751Z,1019.51
2018-01-30T17:05:35.724Z,1019.51
2018-01-30T17:06:35.729Z,1019.48
2018-01-30T17:07:35.704Z,1019.48
2018-01-30T17:08:35.701Z,1019.49
2018-01-30T17:09:36.415Z,1019.46
2018-01-30T17:10:35.687Z,1019.50
2018-01-30T17:11:35.715Z,1019.44
2018-01-30T17:12:35.675Z,1019.45
2018-01-30T17:13:35.691Z,1019.42
2018-01-30T17:13:47.663Z,1019.39
2018-01-30T17:15:35.647Z,1019.36
2018-01-30T17:16:35.643Z,1019.39
2018-01-30T17:17:35.635Z,1019.44
2018-01-30T17:18:35.644Z,1019.41
2018-01-30T17:19:35.614Z,1019.43
2018-01-30T17:20:35.607Z,1019.44
2018-01-30T17:21:35.600Z,1019.41
2018-01-30T17:22:38.435Z,1019.39
2018-01-30T17:23:35.601Z,1019.37
2018-01-30T17:24:35.578Z,1019.38
2018-01-30T17:25:35.568Z,1019.34
2018-01-30T17:26:35.559Z,1019.38
2018-01-30T17:27:35.552Z,1019.38
2018-01-30T17:28:35.547Z,1019.38
2018-01-30T17:29:35.563Z,1019.34
2018-01-30T17:30:35.533Z,1019.35
2018-01-30T17:31:35.521Z,1019.38
2018-01-30T17:32:35.510Z,1019.37
2018-01-30T17:33:35.510Z,1019.36
2018-01-30T17:34:35.493Z,1019.33
2018-01-30T17:35:35.487Z,1019.36
2018-01-30T17:36:35.492Z,1019.31
2018-01-30T17:37:35.479Z,1019.31
2018-01-30T17:38:35.467Z,1019.27
2018-01-30T17:39:35.458Z,1019.26
2018-01-30T17:40:35.445Z,1019.24
2018-01-30T17:41:35.441Z,1019.19
2018-01-30T17:42:35.431Z,1019.20
2018-01-30T17:43:35.420Z,1019.17
2018-01-30T17:44:35.409Z,1019.18
2018-01-30T17:45:35.404Z,1019.16
2018-01-30T17:46:35.411Z,1019.11
2018-01-30T17:47:35.385Z,1019.11
2018-01-30T17:48:35.390Z,1019.09
2018-01-30T17:49:35.371Z,1019.08
2018-01-30T17:50:35.362Z,1019.08
2018-01-30T17:51:35.352Z,1019.04
2018-01-30T17:52:35.344Z,1018.96
2018-01-30T17:53:35.341Z,1018.97
2018-01-30T17:54:35.326Z,1019.03
2018-01-30T17:55:35.333Z,1018.99
2018-01-30T17:56:35.309Z,1018.94
2018-01-30T17:57:35.310Z,1018.95
2018-01-30T17:58:35.293Z,1018.93
2018-01-30T17:59:35.279Z,1018.94
2018-01-30T18:00:35.282Z,1018.92
2018-01-30T18:01:35.267Z,1018.90
2018-01-30T18:02:35.257Z,1018.92
2018-01-30T18:03:35.245Z,1018.87
2018-01-30T18:04:35.261Z,1018.89
2018-01-30T18:05:35.236Z,1018.83
2018-01-30T18:06:35.226Z,1018.76
2018-01-30T18:07:35.216Z,1018.79
2018-01-30T18:08:35.206Z,1018.78
2018-01-30T18:09:35.207Z,1018.74
2018-01-30T18:10:35.199Z,1018.71
2018-01-30T18:11:35.179Z,1018.71
2018-01-30T18:12:35.176Z,1018.72
2018-01-30T18:13:35.170Z,1018.71
2018-01-30T18:14:35.158Z,1018.72
2018-01-30T18:15:35.147Z,1018.77
2018-01-30T18:16:35.136Z,1018.76
2018-01-30T18:17:35.126Z,1018.70
2018-01-30T18:18:35.118Z,1018.72
2018-01-30T18:19:35.109Z,1018.65
2018-01-30T18:20:35.099Z,1018.66
2018-01-30T18:21:35.103Z,1018.64
2018-01-30T18:22:35.084Z,1018.64
2018-01-30T18:23:35.077Z,1018.65
2018-01-30T18:24:35.066Z,1018.66
2018-01-30T18:25:35.057Z,1018.68
2018-01-30T18:26:35.052Z,1018.65
2018-01-30T18:27:35.044Z,1018.62
2018-01-30T18:28:35.039Z,1018.67
2018-01-30T18:29:35.022Z,1018.60
2018-01-30T18:30:35.021Z,1018.60
2018-01-30T18:31:35.003Z,1018.60
2018-01-30T18:32:34.995Z,1018.60
2018-01-30T18:33:35.008Z,1018.61
2018-01-30T18:34:34.989Z,1018.61
2018-01-30T18:35:34.971Z,1018.57
2018-01-30T18:36:34.961Z,1018.52
2018-01-30T18:37:34.953Z,1018.50
2018-01-30T18:38:35.003Z,1018.54
2018-01-30T18:39:34.946Z,1018.50
2018-01-30T18:40:34.945Z,1018.47
2018-01-30T18:41:34.936Z,1018.50
2018-01-30T18:42:34.918Z,1018.51
2018-01-30T18:43:34.906Z,1018.51
2018-01-30T18:44:34.901Z,1018.53
2018-01-30T18:45:34.893Z,1018.51
2018-01-30T18:46:34.880Z,1018.51
2018-01-30T18:47:34.871Z,1018.46
2018-01-30T18:48:34.861Z,1018.50
2018-01-30T18:49:34.933Z,1018.45
2018-01-30T18:50:34.852Z,1018.38
2018-01-30T18:51:34.837Z,1018.44
2018-01-30T18:52:34.854Z,1018.43
2018-01-30T18:53:34.816Z,1018.42
2018-01-30T18:54:34.818Z,1018.46
2018-01-30T18:55:34.814Z,1018.40
2018-01-30T18:56:34.797Z,1018.45
2018-01-30T18:57:34.792Z,1018.42
2018-01-30T18:58:34.779Z,1018.39
2018-01-30T18:59:34.785Z,1018.43
2018-01-30T19:00:34.784Z,1018.37